sensor_id;sensor_type;location;lat;lon;timestamp;pressure;altitude;pressure_sealevel;temperature;humidity
16525;BME280;8375;33.594;-117.718;2023-06-22T00:00:42;100066.91;;;25.97;37.24
16525;BME280;8375;33.594;-117.718;2023-06-22T00:03:11;100066.53;;;25.93;37.10
16525;BME280;8375;33.594;-117.718;2023-06-22T00:05:39;100063.00;;;25.81;38.65
16525;BME280;8375;33.594;-117.718;2023-06-22T00:08:10;100058.44;;;25.70;37.96
16525;BME280;8375;33.594;-117.718;2023-06-22T00:10:38;100055.28;;;25.61;39.40
16525;BME280;8375;33.594;-117.718;2023-06-22T00:13:08;100055.19;;;25.68;39.53
16525;BME280;8375;33.594;-117.718;2023-06-22T00:15:37;100045.97;;;25.70;39.13
16525;BME280;8375;33.594;-117.718;2023-06-22T00:18:06;100047.50;;;25.78;38.37
16525;BME280;8375;33.594;-117.718;2023-06-22T00:20:36;100047.75;;;25.76;39.25
16525;BME280;8375;33.594;-117.718;2023-06-22T00:23:06;100041.09;;;25.67;39.83
16525;BME280;8375;33.594;-117.718;2023-06-22T00:25:37;100037.75;;;25.53;40.64
16525;BME280;8375;33.594;-117.718;2023-06-22T00:28:07;100033.47;;;25.52;41.28
16525;BME280;8375;33.594;-117.718;2023-06-22T00:30:36;100025.66;;;25.57;41.11
16525;BME280;8375;33.594;-117.718;2023-06-22T00:33:04;100025.97;;;25.49;41.09
16525;BME280;8375;33.594;-117.718;2023-06-22T00:35:34;100019.91;;;25.60;42.41
16525;BME280;8375;33.594;-117.718;2023-06-22T00:38:02;100018.44;;;25.46;41.99
16525;BME280;8375;33.594;-117.718;2023-06-22T00:40:33;100020.88;;;25.47;41.46
16525;BME280;8375;33.594;-117.718;2023-06-22T00:43:03;100021.09;;;25.46;41.94
16525;BME280;8375;33.594;-117.718;2023-06-22T00:45:32;100019.72;;;25.37;41.69
16525;BME280;8375;33.594;-117.718;2023-06-22T00:48:01;100012.59;;;25.37;43.29
16525;BME280;8375;33.594;-117.718;2023-06-22T00:50:32;100005.66;;;25.36;43.05
16525;BME280;8375;33.594;-117.718;2023-06-22T00:53:03;100005.78;;;25.23;43.21
16525;BME280;8375;33.594;-117.718;2023-06-22T00:55:35;100009.53;;;25.15;43.07
16525;BME280;8375;33.594;-117.718;2023-06-22T00:58:07;100014.75;;;25.03;43.34
16525;BME280;8375;33.594;-117.718;2023-06-22T01:00:38;100004.63;;;24.93;44.13
16525;BME280;8375;33.594;-117.718;2023-06-22T01:03:07;100005.50;;;24.87;44.72
16525;BME280;8375;33.594;-117.718;2023-06-22T01:05:37;100002.41;;;24.90;44.93
16525;BME280;8375;33.594;-117.718;2023-06-22T01:08:13;100009.88;;;25.00;44.22
16525;BME280;8375;33.594;-117.718;2023-06-22T01:10:50;100012.16;;;24.96;42.90
16525;BME280;8375;33.594;-117.718;2023-06-22T01:13:27;100014.47;;;24.86;42.59
16525;BME280;8375;33.594;-117.718;2023-06-22T01:16:02;100014.75;;;24.78;42.37
16525;BME280;8375;33.594;-117.718;2023-06-22T01:18:35;100006.00;;;24.77;42.05
16525;BME280;8375;33.594;-117.718;2023-06-22T01:21:06;100015.06;;;24.88;43.08
16525;BME280;8375;33.594;-117.718;2023-06-22T01:23:53;100010.03;;;24.80;42.93
16525;BME280;8375;33.594;-117.718;2023-06-22T01:26:35;100015.78;;;24.77;42.85
16525;BME280;8375;33.594;-117.718;2023-06-22T01:29:11;100013.75;;;24.72;42.07
16525;BME280;8375;33.594;-117.718;2023-06-22T01:31:42;100015.44;;;24.66;43.63
16525;BME280;8375;33.594;-117.718;2023-06-22T01:34:13;100019.34;;;24.64;44.56
16525;BME280;8375;33.594;-117.718;2023-06-22T01:36:43;100016.78;;;24.50;44.48
16525;BME280;8375;33.594;-117.718;2023-06-22T01:39:13;100016.78;;;24.50;45.34
16525;BME280;8375;33.594;-117.718;2023-06-22T01:41:43;100007.88;;;24.38;44.70
16525;BME280;8375;33.594;-117.718;2023-06-22T01:44:14;100012.19;;;24.32;44.29
16525;BME280;8375;33.594;-117.718;2023-06-22T01:46:44;100006.50;;;24.28;44.82
16525;BME280;8375;33.594;-117.718;2023-06-22T01:49:13;100009.19;;;24.22;44.29
16525;BME280;8375;33.594;-117.718;2023-06-22T01:51:42;100012.09;;;24.13;45.54
16525;BME280;8375;33.594;-117.718;2023-06-22T01:54:11;100018.84;;;24.09;45.89
16525;BME280;8375;33.594;-117.718;2023-06-22T01:56:40;100021.34;;;23.91;46.35
16525;BME280;8375;33.594;-117.718;2023-06-22T01:59:13;100030.72;;;24.00;47.03
16525;BME280;8375;33.594;-117.718;2023-06-22T02:01:48;100028.88;;;23.94;46.43
16525;BME280;8375;33.594;-117.718;2023-06-22T02:04:26;100032.22;;;23.69;46.40
16525;BME280;8375;33.594;-117.718;2023-06-22T02:06:59;100042.47;;;23.52;46.98
16525;BME280;8375;33.594;-117.718;2023-06-22T02:09:30;100041.69;;;23.31;47.50
16525;BME280;8375;33.594;-117.718;2023-06-22T02:12:00;100047.78;;;23.18;48.15
16525;BME280;8375;33.594;-117.718;2023-06-22T02:14:31;100040.88;;;22.90;48.97
16525;BME280;8375;33.594;-117.718;2023-06-22T02:17:01;100044.94;;;22.79;49.56
16525;BME280;8375;33.594;-117.718;2023-06-22T02:19:36;100052.06;;;22.65;50.15
16525;BME280;8375;33.594;-117.718;2023-06-22T02:22:06;100052.03;;;22.52;50.63
16525;BME280;8375;33.594;-117.718;2023-06-22T02:24:34;100054.97;;;22.22;50.48
16525;BME280;8375;33.594;-117.718;2023-06-22T02:27:04;100056.56;;;22.09;51.96
16525;BME280;8375;33.594;-117.718;2023-06-22T02:29:33;100060.56;;;21.92;51.68
16525;BME280;8375;33.594;-117.718;2023-06-22T02:32:04;100065.34;;;21.75;52.35
16525;BME280;8375;33.594;-117.718;2023-06-22T02:34:33;100063.97;;;21.50;51.78
16525;BME280;8375;33.594;-117.718;2023-06-22T02:37:03;100061.88;;;21.46;52.76
16525;BME280;8375;33.594;-117.718;2023-06-22T02:39:32;100063.50;;;21.18;52.20
16525;BME280;8375;33.594;-117.718;2023-06-22T02:42:01;100065.03;;;20.84;53.04
16525;BME280;8375;33.594;-117.718;2023-06-22T02:44:30;100060.81;;;20.68;53.56
16525;BME280;8375;33.594;-117.718;2023-06-22T02:46:59;100060.31;;;20.58;54.09
16525;BME280;8375;33.594;-117.718;2023-06-22T02:49:29;100052.91;;;20.46;54.35
16525;BME280;8375;33.594;-117.718;2023-06-22T02:51:58;100063.44;;;20.46;55.47
16525;BME280;8375;33.594;-117.718;2023-06-22T02:54:27;100065.50;;;20.51;56.23
16525;BME280;8375;33.594;-117.718;2023-06-22T02:56:55;100062.97;;;20.43;55.29
16525;BME280;8375;33.594;-117.718;2023-06-22T02:59:24;100057.66;;;20.21;55.16
16525;BME280;8375;33.594;-117.718;2023-06-22T03:01:53;100065.56;;;20.21;56.40
16525;BME280;8375;33.594;-117.718;2023-06-22T03:04:21;100065.56;;;20.21;56.67
16525;BME280;8375;33.594;-117.718;2023-06-22T03:06:52;100066.16;;;20.01;56.27
16525;BME280;8375;33.594;-117.718;2023-06-22T03:09:20;100058.63;;;19.83;56.62
16525;BME280;8375;33.594;-117.718;2023-06-22T03:11:49;100065.13;;;19.72;57.93
16525;BME280;8375;33.594;-117.718;2023-06-22T03:14:18;100067.97;;;19.71;58.32
16525;BME280;8375;33.594;-117.718;2023-06-22T03:16:47;100065.22;;;19.64;58.10
16525;BME280;8375;33.594;-117.718;2023-06-22T03:19:16;100073.31;;;19.62;58.29
16525;BME280;8375;33.594;-117.718;2023-06-22T03:21:46;100066.41;;;19.61;58.53
16525;BME280;8375;33.594;-117.718;2023-06-22T03:24:16;100066.66;;;19.52;58.50
16525;BME280;8375;33.594;-117.718;2023-06-22T03:26:45;100067.47;;;19.37;59.29
16525;BME280;8375;33.594;-117.718;2023-06-22T03:29:14;100074.56;;;19.37;59.42
16525;BME280;8375;33.594;-117.718;2023-06-22T03:31:42;100072.44;;;19.32;59.57
16525;BME280;8375;33.594;-117.718;2023-06-22T03:34:11;100069.72;;;19.25;60.24
16525;BME280;8375;33.594;-117.718;2023-06-22T03:36:40;100073.06;;;19.19;60.39
16525;BME280;8375;33.594;-117.718;2023-06-22T03:39:11;100073.13;;;19.11;60.90
16525;BME280;8375;33.594;-117.718;2023-06-22T03:41:42;100082.84;;;19.10;61.75
16525;BME280;8375;33.594;-117.718;2023-06-22T03:44:10;100088.09;;;19.10;61.18
16525;BME280;8375;33.594;-117.718;2023-06-22T03:46:39;100087.81;;;19.05;60.96
16525;BME280;8375;33.594;-117.718;2023-06-22T03:49:08;100083.56;;;18.96;61.24
16525;BME280;8375;33.594;-117.718;2023-06-22T03:51:36;100081.94;;;18.95;61.65
16525;BME280;8375;33.594;-117.718;2023-06-22T03:54:05;100087.38;;;18.93;61.87
16525;BME280;8375;33.594;-117.718;2023-06-22T03:56:34;100096.31;;;18.84;61.76
16525;BME280;8375;33.594;-117.718;2023-06-22T03:59:04;100093.91;;;18.74;62.47
16525;BME280;8375;33.594;-117.718;2023-06-22T04:01:33;100090.69;;;18.64;63.15
16525;BME280;8375;33.594;-117.718;2023-06-22T04:04:03;100086.75;;;18.59;63.61
16525;BME280;8375;33.594;-117.718;2023-06-22T04:06:32;100093.38;;;18.55;63.88
16525;BME280;8375;33.594;-117.718;2023-06-22T04:09:01;100104.22;;;18.52;64.56
16525;BME280;8375;33.594;-117.718;2023-06-22T04:11:29;100105.72;;;18.46;64.71
16525;BME280;8375;33.594;-117.718;2023-06-22T04:13:58;100104.91;;;18.46;64.83
16525;BME280;8375;33.594;-117.718;2023-06-22T04:16:28;100101.78;;;18.42;64.44
16525;BME280;8375;33.594;-117.718;2023-06-22T04:18:57;100096.72;;;18.41;64.24
16525;BME280;8375;33.594;-117.718;2023-06-22T04:21:26;100104.00;;;18.30;64.99
16525;BME280;8375;33.594;-117.718;2023-06-22T04:23:55;100113.38;;;18.25;65.67
16525;BME280;8375;33.594;-117.718;2023-06-22T04:26:24;100116.53;;;18.20;65.30
16525;BME280;8375;33.594;-117.718;2023-06-22T04:28:52;100115.69;;;18.20;65.14
16525;BME280;8375;33.594;-117.718;2023-06-22T04:31:22;100117.03;;;18.07;65.10
16525;BME280;8375;33.594;-117.718;2023-06-22T04:34:00;100126.25;;;18.03;65.82
16525;BME280;8375;33.594;-117.718;2023-06-22T04:36:34;100124.91;;;17.99;66.70
16525;BME280;8375;33.594;-117.718;2023-06-22T04:39:08;100124.09;;;17.98;67.32
16525;BME280;8375;33.594;-117.718;2023-06-22T04:41:37;100125.25;;;17.96;66.60
16525;BME280;8375;33.594;-117.718;2023-06-22T04:44:12;100131.69;;;17.93;66.33
16525;BME280;8375;33.594;-117.718;2023-06-22T04:46:40;100133.97;;;17.88;67.17
16525;BME280;8375;33.594;-117.718;2023-06-22T04:49:11;100133.81;;;17.81;67.21
16525;BME280;8375;33.594;-117.718;2023-06-22T04:51:40;100136.97;;;17.77;67.88
16525;BME280;8375;33.594;-117.718;2023-06-22T04:54:10;100133.19;;;17.71;67.98
16525;BME280;8375;33.594;-117.718;2023-06-22T04:56:38;100136.97;;;17.68;68.32
16525;BME280;8375;33.594;-117.718;2023-06-22T04:59:08;100133.38;;;17.61;68.43
16525;BME280;8375;33.594;-117.718;2023-06-22T05:01:39;100131.41;;;17.55;68.77
16525;BME280;8375;33.594;-117.718;2023-06-22T05:04:10;100135.66;;;17.56;69.17
16525;BME280;8375;33.594;-117.718;2023-06-22T05:06:39;100132.88;;;17.57;69.62
16525;BME280;8375;33.594;-117.718;2023-06-22T05:09:07;100130.91;;;17.51;69.25
16525;BME280;8375;33.594;-117.718;2023-06-22T05:11:38;100123.38;;;17.48;68.42
16525;BME280;8375;33.594;-117.718;2023-06-22T05:14:07;100133.84;;;17.48;69.70
16525;BME280;8375;33.594;-117.718;2023-06-22T05:16:36;100129.94;;;17.44;69.47
16525;BME280;8375;33.594;-117.718;2023-06-22T05:19:05;100123.69;;;17.37;69.48
16525;BME280;8375;33.594;-117.718;2023-06-22T05:21:35;100132.72;;;17.34;71.23
16525;BME280;8375;33.594;-117.718;2023-06-22T05:24:04;100145.84;;;17.26;70.94
16525;BME280;8375;33.594;-117.718;2023-06-22T05:26:34;100132.88;;;17.16;70.79
16525;BME280;8375;33.594;-117.718;2023-06-22T05:29:03;100127.81;;;17.14;70.99
16525;BME280;8375;33.594;-117.718;2023-06-22T05:31:33;100126.81;;;17.07;71.48
16525;BME280;8375;33.594;-117.718;2023-06-22T05:34:01;100128.47;;;17.08;72.33
16525;BME280;8375;33.594;-117.718;2023-06-22T05:36:30;100125.19;;;17.06;72.65
16525;BME280;8375;33.594;-117.718;2023-06-22T05:39:11;100125.28;;;16.96;72.21
16525;BME280;8375;33.594;-117.718;2023-06-22T05:41:41;100129.56;;;16.97;73.18
16525;BME280;8375;33.594;-117.718;2023-06-22T05:44:10;100128.09;;;16.95;73.41
16525;BME280;8375;33.594;-117.718;2023-06-22T05:46:42;100122.50;;;16.90;73.60
16525;BME280;8375;33.594;-117.718;2023-06-22T05:49:12;100115.28;;;16.83;74.86
16525;BME280;8375;33.594;-117.718;2023-06-22T05:51:42;100126.09;;;16.80;75.19
16525;BME280;8375;33.594;-117.718;2023-06-22T05:54:12;100121.50;;;16.82;75.47
16525;BME280;8375;33.594;-117.718;2023-06-22T05:56:44;100123.59;;;16.79;75.91
16525;BME280;8375;33.594;-117.718;2023-06-22T05:59:13;100126.56;;;16.76;75.91
16525;BME280;8375;33.594;-117.718;2023-06-22T06:01:41;100126.53;;;16.67;75.33
16525;BME280;8375;33.594;-117.718;2023-06-22T06:04:10;100128.31;;;16.59;75.38
16525;BME280;8375;33.594;-117.718;2023-06-22T06:06:39;100123.41;;;16.55;76.24
16525;BME280;8375;33.594;-117.718;2023-06-22T06:09:07;100123.03;;;16.42;77.00
16525;BME280;8375;33.594;-117.718;2023-06-22T06:11:38;100135.97;;;16.43;78.50
16525;BME280;8375;33.594;-117.718;2023-06-22T06:14:07;100133.50;;;16.42;78.01
16525;BME280;8375;33.594;-117.718;2023-06-22T06:16:36;100130.88;;;16.42;78.61
16525;BME280;8375;33.594;-117.718;2023-06-22T06:19:05;100127.41;;;16.33;78.78
16525;BME280;8375;33.594;-117.718;2023-06-22T06:21:33;100136.59;;;16.37;79.96
16525;BME280;8375;33.594;-117.718;2023-06-22T06:24:02;100130.66;;;16.27;80.15
16525;BME280;8375;33.594;-117.718;2023-06-22T06:26:31;100129.50;;;16.21;80.19
16525;BME280;8375;33.594;-117.718;2023-06-22T06:29:03;100126.53;;;16.16;80.33
16525;BME280;8375;33.594;-117.718;2023-06-22T06:31:32;100117.34;;;16.12;80.32
16525;BME280;8375;33.594;-117.718;2023-06-22T06:34:01;100115.50;;;16.04;81.28
16525;BME280;8375;33.594;-117.718;2023-06-22T06:36:30;100110.88;;;15.98;81.85
16525;BME280;8375;33.594;-117.718;2023-06-22T06:38:59;100115.63;;;15.94;82.15
16525;BME280;8375;33.594;-117.718;2023-06-22T06:41:28;100129.00;;;15.91;82.60
16525;BME280;8375;33.594;-117.718;2023-06-22T06:43:57;100125.56;;;15.91;82.72
16525;BME280;8375;33.594;-117.718;2023-06-22T06:46:27;100121.16;;;15.91;83.22
16525;BME280;8375;33.594;-117.718;2023-06-22T06:48:56;100122.69;;;15.84;83.60
16525;BME280;8375;33.594;-117.718;2023-06-22T06:51:25;100123.97;;;15.80;83.94
16525;BME280;8375;33.594;-117.718;2023-06-22T06:53:54;100129.50;;;15.77;84.88
16525;BME280;8375;33.594;-117.718;2023-06-22T06:56:23;100124.28;;;15.77;87.92
16525;BME280;8375;33.594;-117.718;2023-06-22T06:58:52;100115.94;;;15.73;87.91
16525;BME280;8375;33.594;-117.718;2023-06-22T07:01:20;100124.69;;;15.64;86.73
16525;BME280;8375;33.594;-117.718;2023-06-22T07:03:51;100122.91;;;15.64;87.05
16525;BME280;8375;33.594;-117.718;2023-06-22T07:06:20;100126.34;;;15.65;86.03
16525;BME280;8375;33.594;-117.718;2023-06-22T07:08:49;100128.59;;;15.60;85.43
16525;BME280;8375;33.594;-117.718;2023-06-22T07:11:17;100122.53;;;15.59;86.26
16525;BME280;8375;33.594;-117.718;2023-06-22T07:13:46;100119.03;;;15.50;86.13
16525;BME280;8375;33.594;-117.718;2023-06-22T07:16:15;100122.56;;;15.41;86.03
16525;BME280;8375;33.594;-117.718;2023-06-22T07:18:44;100123.84;;;15.37;85.82
16525;BME280;8375;33.594;-117.718;2023-06-22T07:21:15;100121.91;;;15.39;86.74
16525;BME280;8375;33.594;-117.718;2023-06-22T07:23:43;100126.59;;;15.35;87.03
16525;BME280;8375;33.594;-117.718;2023-06-22T07:26:12;100128.84;;;15.30;87.58
16525;BME280;8375;33.594;-117.718;2023-06-22T07:28:43;100124.53;;;15.21;88.04
16525;BME280;8375;33.594;-117.718;2023-06-22T07:31:12;100128.34;;;15.27;89.34
16525;BME280;8375;33.594;-117.718;2023-06-22T07:33:40;100130.72;;;15.20;89.41
16525;BME280;8375;33.594;-117.718;2023-06-22T07:36:09;100122.88;;;15.20;90.18
16525;BME280;8375;33.594;-117.718;2023-06-22T07:38:40;100120.72;;;15.15;90.15
16525;BME280;8375;33.594;-117.718;2023-06-22T07:41:09;100122.28;;;15.08;90.26
16525;BME280;8375;33.594;-117.718;2023-06-22T07:43:38;100113.84;;;14.96;90.32
16525;BME280;8375;33.594;-117.718;2023-06-22T07:46:07;100121.69;;;14.96;90.81
16525;BME280;8375;33.594;-117.718;2023-06-22T07:48:38;100114.00;;;14.94;90.10
16525;BME280;8375;33.594;-117.718;2023-06-22T07:51:08;100111.81;;;14.90;90.62
16525;BME280;8375;33.594;-117.718;2023-06-22T07:53:41;100109.97;;;14.82;90.78
16525;BME280;8375;33.594;-117.718;2023-06-22T07:56:11;100108.16;;;14.82;91.59
16525;BME280;8375;33.594;-117.718;2023-06-22T07:58:40;100103.59;;;14.85;91.36
16525;BME280;8375;33.594;-117.718;2023-06-22T08:01:09;100100.41;;;14.73;91.37
16525;BME280;8375;33.594;-117.718;2023-06-22T08:03:39;100100.97;;;14.66;92.05
16525;BME280;8375;33.594;-117.718;2023-06-22T08:06:08;100097.81;;;14.63;92.05
16525;BME280;8375;33.594;-117.718;2023-06-22T08:08:37;100093.53;;;14.62;91.83
16525;BME280;8375;33.594;-117.718;2023-06-22T08:11:08;100089.38;;;14.51;92.48
16525;BME280;8375;33.594;-117.718;2023-06-22T08:13:37;100096.53;;;14.49;92.74
16525;BME280;8375;33.594;-117.718;2023-06-22T08:16:05;100087.84;;;14.48;92.51
16525;BME280;8375;33.594;-117.718;2023-06-22T08:18:35;100079.50;;;14.45;92.36
16525;BME280;8375;33.594;-117.718;2023-06-22T08:21:04;100092.00;;;14.41;92.72
16525;BME280;8375;33.594;-117.718;2023-06-22T08:23:33;100095.97;;;14.45;93.10
16525;BME280;8375;33.594;-117.718;2023-06-22T08:26:02;100090.53;;;14.38;93.04
16525;BME280;8375;33.594;-117.718;2023-06-22T08:28:32;100088.03;;;14.37;92.93
16525;BME280;8375;33.594;-117.718;2023-06-22T08:31:01;100097.97;;;14.33;93.33
16525;BME280;8375;33.594;-117.718;2023-06-22T08:33:30;100107.59;;;14.33;93.35
16525;BME280;8375;33.594;-117.718;2023-06-22T08:35:59;100104.16;;;14.32;93.15
16525;BME280;8375;33.594;-117.718;2023-06-22T08:38:28;100112.81;;;14.33;93.87
16525;BME280;8375;33.594;-117.718;2023-06-22T08:40:56;100107.75;;;14.31;93.71
16525;BME280;8375;33.594;-117.718;2023-06-22T08:43:26;100100.19;;;14.28;93.29
16525;BME280;8375;33.594;-117.718;2023-06-22T08:45:56;100097.03;;;14.25;93.53
16525;BME280;8375;33.594;-117.718;2023-06-22T08:48:25;100103.38;;;14.22;93.74
16525;BME280;8375;33.594;-117.718;2023-06-22T08:50:54;100108.44;;;14.23;95.26
16525;BME280;8375;33.594;-117.718;2023-06-22T08:53:23;100105.03;;;14.23;95.45
16525;BME280;8375;33.594;-117.718;2023-06-22T08:55:51;100103.69;;;14.19;95.04
16525;BME280;8375;33.594;-117.718;2023-06-22T08:58:20;100109.41;;;14.22;96.33
16525;BME280;8375;33.594;-117.718;2023-06-22T09:00:50;100102.41;;;14.23;96.17
16525;BME280;8375;33.594;-117.718;2023-06-22T09:03:21;100095.97;;;14.17;96.54
16525;BME280;8375;33.594;-117.718;2023-06-22T09:05:52;100099.31;;;14.10;96.82
16525;BME280;8375;33.594;-117.718;2023-06-22T09:08:22;100101.78;;;14.11;97.74
16525;BME280;8375;33.594;-117.718;2023-06-22T09:10:51;100095.34;;;14.05;97.88
16525;BME280;8375;33.594;-117.718;2023-06-22T09:13:19;100098.94;;;14.04;97.53
16525;BME280;8375;33.594;-117.718;2023-06-22T09:15:48;100089.19;;;13.97;97.78
16525;BME280;8375;33.594;-117.718;2023-06-22T09:18:17;100100.59;;;13.96;98.21
16525;BME280;8375;33.594;-117.718;2023-06-22T09:20:47;100099.09;;;13.93;98.56
16525;BME280;8375;33.594;-117.718;2023-06-22T09:23:16;100101.03;;;13.91;98.50
16525;BME280;8375;33.594;-117.718;2023-06-22T09:25:45;100099.50;;;13.88;98.11
16525;BME280;8375;33.594;-117.718;2023-06-22T09:28:14;100093.09;;;13.83;98.00
16525;BME280;8375;33.594;-117.718;2023-06-22T09:30:43;100094.19;;;13.80;98.39
16525;BME280;8375;33.594;-117.718;2023-06-22T09:33:12;100083.06;;;13.78;98.08
16525;BME280;8375;33.594;-117.718;2023-06-22T09:35:41;100081.13;;;13.80;98.09
16525;BME280;8375;33.594;-117.718;2023-06-22T09:38:11;100081.00;;;13.82;98.33
16525;BME280;8375;33.594;-117.718;2023-06-22T09:40:40;100085.84;;;13.76;98.84
16525;BME280;8375;33.594;-117.718;2023-06-22T09:43:09;100091.72;;;13.78;99.53
16525;BME280;8375;33.594;-117.718;2023-06-22T09:45:38;100088.72;;;13.73;99.78
16525;BME280;8375;33.594;-117.718;2023-06-22T09:48:06;100080.34;;;13.70;99.74
16525;BME280;8375;33.594;-117.718;2023-06-22T09:50:36;100078.56;;;13.60;99.60
16525;BME280;8375;33.594;-117.718;2023-06-22T09:53:04;100078.56;;;13.60;99.59
16525;BME280;8375;33.594;-117.718;2023-06-22T09:55:35;100077.91;;;13.58;99.25
16525;BME280;8375;33.594;-117.718;2023-06-22T09:58:03;100086.16;;;13.54;99.51
16525;BME280;8375;33.594;-117.718;2023-06-22T10:00:32;100085.72;;;13.58;99.59
16525;BME280;8375;33.594;-117.718;2023-06-22T10:03:01;100078.84;;;13.57;99.65
16525;BME280;8375;33.594;-117.718;2023-06-22T10:05:29;100090.00;;;13.49;99.75
16525;BME280;8375;33.594;-117.718;2023-06-22T10:07:58;100097.28;;;13.46;100.00
16525;BME280;8375;33.594;-117.718;2023-06-22T10:10:27;100096.59;;;13.44;100.00
16525;BME280;8375;33.594;-117.718;2023-06-22T10:13:01;100091.22;;;13.35;100.00
16525;BME280;8375;33.594;-117.718;2023-06-22T10:15:30;100108.50;;;13.37;100.00
16525;BME280;8375;33.594;-117.718;2023-06-22T10:17:59;100105.50;;;13.41;100.00
16525;BME280;8375;33.594;-117.718;2023-06-22T10:20:28;100093.53;;;13.39;100.00
16525;BME280;8375;33.594;-117.718;2023-06-22T10:22:57;100095.91;;;13.32;100.00
16525;BME280;8375;33.594;-117.718;2023-06-22T10:25:26;100098.06;;;13.37;100.00
16525;BME280;8375;33.594;-117.718;2023-06-22T10:27:56;100082.88;;;13.32;100.00
16525;BME280;8375;33.594;-117.718;2023-06-22T10:30:25;100090.81;;;13.30;100.00
16525;BME280;8375;33.594;-117.718;2023-06-22T10:32:55;100082.97;;;13.30;100.00
16525;BME280;8375;33.594;-117.718;2023-06-22T10:35:24;100073.53;;;13.29;100.00
16525;BME280;8375;33.594;-117.718;2023-06-22T10:37:54;100074.75;;;13.25;100.00
16525;BME280;8375;33.594;-117.718;2023-06-22T10:40:23;100073.41;;;13.31;100.00
16525;BME280;8375;33.594;-117.718;2023-06-22T10:42:52;100087.78;;;13.35;100.00
16525;BME280;8375;33.594;-117.718;2023-06-22T10:45:22;100071.31;;;13.34;100.00
16525;BME280;8375;33.594;-117.718;2023-06-22T10:47:51;100069.94;;;13.30;100.00
16525;BME280;8375;33.594;-117.718;2023-06-22T10:50:20;100071.19;;;13.26;100.00
16525;BME280;8375;33.594;-117.718;2023-06-22T10:52:50;100077.66;;;13.32;100.00
16525;BME280;8375;33.594;-117.718;2023-06-22T10:55:19;100083.25;;;13.27;100.00
16525;BME280;8375;33.594;-117.718;2023-06-22T10:57:48;100084.34;;;13.25;100.00
16525;BME280;8375;33.594;-117.718;2023-06-22T11:00:17;100078.59;;;13.21;100.00
16525;BME280;8375;33.594;-117.718;2023-06-22T11:02:47;100076.97;;;13.20;100.00
16525;BME280;8375;33.594;-117.718;2023-06-22T11:05:16;100087.38;;;13.20;100.00
16525;BME280;8375;33.594;-117.718;2023-06-22T11:07:44;100083.81;;;13.21;100.00
16525;BME280;8375;33.594;-117.718;2023-06-22T11:10:15;100079.97;;;13.25;100.00
16525;BME280;8375;33.594;-117.718;2023-06-22T11:12:44;100085.31;;;13.14;100.00
16525;BME280;8375;33.594;-117.718;2023-06-22T11:15:12;100094.63;;;13.16;100.00
16525;BME280;8375;33.594;-117.718;2023-06-22T11:17:41;100083.53;;;13.14;100.00
16525;BME280;8375;33.594;-117.718;2023-06-22T11:20:12;100088.63;;;13.16;100.00
16525;BME280;8375;33.594;-117.718;2023-06-22T11:22:41;100089.59;;;13.15;100.00
16525;BME280;8375;33.594;-117.718;2023-06-22T11:25:10;100082.72;;;13.14;100.00
16525;BME280;8375;33.594;-117.718;2023-06-22T11:27:39;100077.78;;;13.11;100.00
16525;BME280;8375;33.594;-117.718;2023-06-22T11:30:09;100079.44;;;13.12;100.00
16525;BME280;8375;33.594;-117.718;2023-06-22T11:32:37;100084.91;;;13.09;100.00
16525;BME280;8375;33.594;-117.718;2023-06-22T11:35:07;100082.16;;;13.10;100.00
16525;BME280;8375;33.594;-117.718;2023-06-22T11:37:37;100084.91;;;13.09;100.00
16525;BME280;8375;33.594;-117.718;2023-06-22T11:40:07;100083.97;;;13.10;100.00
16525;BME280;8375;33.594;-117.718;2023-06-22T11:42:36;100080.66;;;13.17;100.00
16525;BME280;8375;33.594;-117.718;2023-06-22T11:45:06;100082.44;;;13.17;100.00
16525;BME280;8375;33.594;-117.718;2023-06-22T11:47:35;100086.53;;;13.19;100.00
16525;BME280;8375;33.594;-117.718;2023-06-22T11:50:05;100078.59;;;13.21;100.00
16525;BME280;8375;33.594;-117.718;2023-06-22T11:52:36;100092.31;;;13.23;100.00
16525;BME280;8375;33.594;-117.718;2023-06-22T11:55:05;100099.59;;;13.29;100.00
16525;BME280;8375;33.594;-117.718;2023-06-22T11:57:36;100095.06;;;13.31;100.00
16525;BME280;8375;33.594;-117.718;2023-06-22T12:00:05;100089.56;;;13.34;100.00
16525;BME280;8375;33.594;-117.718;2023-06-22T12:02:44;100093.13;;;13.33;100.00
16525;BME280;8375;33.594;-117.718;2023-06-22T12:05:13;100090.53;;;13.33;100.00
16525;BME280;8375;33.594;-117.718;2023-06-22T12:07:43;100100.84;;;13.35;100.00
16525;BME280;8375;33.594;-117.718;2023-06-22T12:10:12;100105.78;;;13.38;100.00
16525;BME280;8375;33.594;-117.718;2023-06-22T12:12:41;100106.47;;;13.40;100.00
16525;BME280;8375;33.594;-117.718;2023-06-22T12:15:10;100092.75;;;13.48;100.00
16525;BME280;8375;33.594;-117.718;2023-06-22T12:17:39;100099.06;;;13.45;100.00
16525;BME280;8375;33.594;-117.718;2023-06-22T12:20:09;100113.72;;;13.56;100.00
16525;BME280;8375;33.594;-117.718;2023-06-22T12:22:38;100105.34;;;13.62;100.00
16525;BME280;8375;33.594;-117.718;2023-06-22T12:25:08;100105.50;;;13.61;100.00
16525;BME280;8375;33.594;-117.718;2023-06-22T12:27:38;100112.75;;;13.57;100.00
16525;BME280;8375;33.594;-117.718;2023-06-22T12:30:08;100111.81;;;13.58;100.00
16525;BME280;8375;33.594;-117.718;2023-06-22T12:32:37;100112.75;;;13.57;100.00
16525;BME280;8375;33.594;-117.718;2023-06-22T12:35:06;100125.53;;;13.60;100.00
16525;BME280;8375;33.594;-117.718;2023-06-22T12:37:40;100121.81;;;13.63;100.00
16525;BME280;8375;33.594;-117.718;2023-06-22T12:40:11;100114.69;;;13.65;100.00